sensor_id;sensor_type;location;lat;lon;timestamp;temperature;humidity
48648;DHT22;34437;-33.956;151.076;2023-04-24T00:00:05;22.60;73.00
48648;DHT22;34437;-33.956;151.076;2023-04-24T00:02:28;22.60;73.00
48648;DHT22;34437;-33.956;151.076;2023-04-24T00:04:50;22.70;73.20
48648;DHT22;34437;-33.956;151.076;2023-04-24T00:07:13;22.70;73.20
48648;DHT22;34437;-33.956;151.076;2023-04-24T00:09:35;22.80;73.90
48648;DHT22;34437;-33.956;151.076;2023-04-24T00:11:58;22.90;73.80
48648;DHT22;34437;-33.956;151.076;2023-04-24T00:14:21;22.90;73.50
48648;DHT22;34437;-33.956;151.076;2023-04-24T00:16:43;22.90;73.20
48648;DHT22;34437;-33.956;151.076;2023-04-24T00:19:06;22.90;72.90
48648;DHT22;34437;-33.956;151.076;2023-04-24T00:21:28;23.00;72.60
48648;DHT22;34437;-33.956;151.076;2023-04-24T00:23:51;23.00;72.50
48648;DHT22;34437;-33.956;151.076;2023-04-24T00:26:14;23.00;72.80
48648;DHT22;34437;-33.956;151.076;2023-04-24T00:28:37;23.00;73.00
48648;DHT22;34437;-33.956;151.076;2023-04-24T00:30:59;23.00;73.00
48648;DHT22;34437;-33.956;151.076;2023-04-24T00:33:22;22.90;73.10
48648;DHT22;34437;-33.956;151.076;2023-04-24T00:35:44;22.90;73.10
48648;DHT22;34437;-33.956;151.076;2023-04-24T00:38:06;22.90;73.00
48648;DHT22;34437;-33.956;151.076;2023-04-24T00:40:29;22.90;73.10
48648;DHT22;34437;-33.956;151.076;2023-04-24T00:42:52;23.00;73.10
48648;DHT22;34437;-33.956;151.076;2023-04-24T00:45:15;23.00;73.30
48648;DHT22;34437;-33.956;151.076;2023-04-24T00:47:37;23.00;73.30
48648;DHT22;34437;-33.956;151.076;2023-04-24T00:50:04;23.00;73.50
48648;DHT22;34437;-33.956;151.076;2023-04-24T00:52:28;23.10;73.60
48648;DHT22;34437;-33.956;151.076;2023-04-24T00:54:52;23.10;73.50
48648;DHT22;34437;-33.956;151.076;2023-04-24T00:57:15;23.10;73.50
48648;DHT22;34437;-33.956;151.076;2023-04-24T00:59:37;23.20;73.40
48648;DHT22;34437;-33.956;151.076;2023-04-24T01:02:02;23.20;73.30
48648;DHT22;34437;-33.956;151.076;2023-04-24T01:04:25;23.20;73.30
48648;DHT22;34437;-33.956;151.076;2023-04-24T01:06:49;23.30;73.30
48648;DHT22;34437;-33.956;151.076;2023-04-24T01:09:12;23.30;73.20
48648;DHT22;34437;-33.956;151.076;2023-04-24T01:11:37;23.30;73.80
48648;DHT22;34437;-33.956;151.076;2023-04-24T01:14:00;23.40;73.00
48648;DHT22;34437;-33.956;151.076;2023-04-24T01:16:23;23.40;73.00
48648;DHT22;34437;-33.956;151.076;2023-04-24T01:18:46;23.40;73.20
48648;DHT22;34437;-33.956;151.076;2023-04-24T01:21:09;23.40;73.10
48648;DHT22;34437;-33.956;151.076;2023-04-24T01:23:35;23.40;73.00
48648;DHT22;34437;-33.956;151.076;2023-04-24T01:25:57;23.40;72.70
48648;DHT22;34437;-33.956;151.076;2023-04-24T01:28:20;23.50;72.50
48648;DHT22;34437;-33.956;151.076;2023-04-24T01:30:43;23.50;72.50
48648;DHT22;34437;-33.956;151.076;2023-04-24T01:33:05;23.50;72.50
48648;DHT22;34437;-33.956;151.076;2023-04-24T01:35:28;23.50;72.50
48648;DHT22;34437;-33.956;151.076;2023-04-24T01:37:50;23.60;72.40
48648;DHT22;34437;-33.956;151.076;2023-04-24T01:40:13;23.60;72.30
48648;DHT22;34437;-33.956;151.076;2023-04-24T01:42:35;23.60;72.50
48648;DHT22;34437;-33.956;151.076;2023-04-24T01:44:58;23.60;72.50
48648;DHT22;34437;-33.956;151.076;2023-04-24T01:47:21;23.60;72.40
48648;DHT22;34437;-33.956;151.076;2023-04-24T01:49:43;23.70;72.20
48648;DHT22;34437;-33.956;151.076;2023-04-24T01:52:07;23.70;72.20
48648;DHT22;34437;-33.956;151.076;2023-04-24T01:54:29;23.70;72.10
48648;DHT22;34437;-33.956;151.076;2023-04-24T01:56:52;23.80;72.20
48648;DHT22;34437;-33.956;151.076;2023-04-24T01:59:16;23.80;72.00
48648;DHT22;34437;-33.956;151.076;2023-04-24T02:01:39;23.80;71.80
48648;DHT22;34437;-33.956;151.076;2023-04-24T02:04:02;23.80;71.70
48648;DHT22;34437;-33.956;151.076;2023-04-24T02:06:24;23.80;71.70
48648;DHT22;34437;-33.956;151.076;2023-04-24T02:08:46;23.90;71.70
48648;DHT22;34437;-33.956;151.076;2023-04-24T02:11:09;23.80;71.70
48648;DHT22;34437;-33.956;151.076;2023-04-24T02:13:32;23.90;71.80
48648;DHT22;34437;-33.956;151.076;2023-04-24T02:15:54;23.80;71.80
48648;DHT22;34437;-33.956;151.076;2023-04-24T02:18:17;23.90;71.80
48648;DHT22;34437;-33.956;151.076;2023-04-24T02:20:39;23.80;71.40
48648;DHT22;34437;-33.956;151.076;2023-04-24T02:23:02;23.80;70.50
48648;DHT22;34437;-33.956;151.076;2023-04-24T02:25:24;23.80;70.60
48648;DHT22;34437;-33.956;151.076;2023-04-24T02:27:47;23.80;70.70
48648;DHT22;34437;-33.956;151.076;2023-04-24T02:30:11;23.90;70.70
48648;DHT22;34437;-33.956;151.076;2023-04-24T02:32:33;23.90;70.80
48648;DHT22;34437;-33.956;151.076;2023-04-24T02:34:56;23.90;71.00
48648;DHT22;34437;-33.956;151.076;2023-04-24T02:37:18;24.00;71.30
48648;DHT22;34437;-33.956;151.076;2023-04-24T02:39:40;24.00;71.30
48648;DHT22;34437;-33.956;151.076;2023-04-24T02:42:03;24.00;71.20
48648;DHT22;34437;-33.956;151.076;2023-04-24T02:44:25;24.00;71.20
48648;DHT22;34437;-33.956;151.076;2023-04-24T02:46:48;24.00;71.10
48648;DHT22;34437;-33.956;151.076;2023-04-24T02:49:10;24.00;71.00
48648;DHT22;34437;-33.956;151.076;2023-04-24T02:51:34;24.00;71.00
48648;DHT22;34437;-33.956;151.076;2023-04-24T02:53:56;24.10;71.10
48648;DHT22;34437;-33.956;151.076;2023-04-24T02:56:18;24.10;71.10
48648;DHT22;34437;-33.956;151.076;2023-04-24T02:58:41;24.10;71.00
48648;DHT22;34437;-33.956;151.076;2023-04-24T03:01:04;24.10;71.00
48648;DHT22;34437;-33.956;151.076;2023-04-24T03:03:26;24.10;70.80
48648;DHT22;34437;-33.956;151.076;2023-04-24T03:05:49;24.10;70.30
48648;DHT22;34437;-33.956;151.076;2023-04-24T03:08:12;24.10;69.60
48648;DHT22;34437;-33.956;151.076;2023-04-24T03:10:34;24.10;69.40
48648;DHT22;34437;-33.956;151.076;2023-04-24T03:12:56;24.10;69.10
48648;DHT22;34437;-33.956;151.076;2023-04-24T03:15:19;24.20;69.10
48648;DHT22;34437;-33.956;151.076;2023-04-24T03:17:41;24.20;69.80
48648;DHT22;34437;-33.956;151.076;2023-04-24T03:20:04;24.20;69.80
48648;DHT22;34437;-33.956;151.076;2023-04-24T03:22:30;24.20;69.60
48648;DHT22;34437;-33.956;151.076;2023-04-24T03:24:54;24.20;69.60
48648;DHT22;34437;-33.956;151.076;2023-04-24T03:27:17;24.30;69.70
48648;DHT22;34437;-33.956;151.076;2023-04-24T03:29:39;24.30;69.80
48648;DHT22;34437;-33.956;151.076;2023-04-24T03:32:01;24.30;69.80
48648;DHT22;34437;-33.956;151.076;2023-04-24T03:34:24;24.30;69.80
48648;DHT22;34437;-33.956;151.076;2023-04-24T03:36:46;24.30;69.90
48648;DHT22;34437;-33.956;151.076;2023-04-24T03:39:09;24.40;69.80
48648;DHT22;34437;-33.956;151.076;2023-04-24T03:41:31;24.40;69.60
48648;DHT22;34437;-33.956;151.076;2023-04-24T03:43:54;24.40;69.80
48648;DHT22;34437;-33.956;151.076;2023-04-24T03:46:16;24.40;69.80
48648;DHT22;34437;-33.956;151.076;2023-04-24T03:48:39;24.40;69.70
48648;DHT22;34437;-33.956;151.076;2023-04-24T03:51:01;24.50;69.70
48648;DHT22;34437;-33.956;151.076;2023-04-24T03:53:24;24.50;69.50
48648;DHT22;34437;-33.956;151.076;2023-04-24T03:55:46;24.60;69.40
48648;DHT22;34437;-33.956;151.076;2023-04-24T03:58:09;24.60;69.40
48648;DHT22;34437;-33.956;151.076;2023-04-24T04:00:32;24.70;69.30
48648;DHT22;34437;-33.956;151.076;2023-04-24T04:02:56;24.70;68.50
48648;DHT22;34437;-33.956;151.076;2023-04-24T04:05:18;24.70;68.60
48648;DHT22;34437;-33.956;151.076;2023-04-24T04:07:41;24.70;68.70
48648;DHT22;34437;-33.956;151.076;2023-04-24T04:10:03;24.80;68.70
48648;DHT22;34437;-33.956;151.076;2023-04-24T04:12:26;24.80;68.70
48648;DHT22;34437;-33.956;151.076;2023-04-24T04:14:48;24.80;68.70
48648;DHT22;34437;-33.956;151.076;2023-04-24T04:17:11;24.80;68.70
48648;DHT22;34437;-33.956;151.076;2023-04-24T04:19:34;24.80;68.90
48648;DHT22;34437;-33.956;151.076;2023-04-24T04:21:56;24.80;68.90
48648;DHT22;34437;-33.956;151.076;2023-04-24T04:24:19;24.80;68.90
48648;DHT22;34437;-33.956;151.076;2023-04-24T04:26:46;24.90;68.90
48648;DHT22;34437;-33.956;151.076;2023-04-24T04:29:08;24.90;68.70
48648;DHT22;34437;-33.956;151.076;2023-04-24T04:31:31;25.00;68.40
48648;DHT22;34437;-33.956;151.076;2023-04-24T04:33:54;25.10;68.40
48648;DHT22;34437;-33.956;151.076;2023-04-24T04:36:16;25.10;68.30
48648;DHT22;34437;-33.956;151.076;2023-04-24T04:38:39;25.10;68.30
48648;DHT22;34437;-33.956;151.076;2023-04-24T04:41:02;25.10;68.40
48648;DHT22;34437;-33.956;151.076;2023-04-24T04:43:25;25.10;68.50
48648;DHT22;34437;-33.956;151.076;2023-04-24T04:45:47;25.10;68.50
48648;DHT22;34437;-33.956;151.076;2023-04-24T04:48:10;25.10;68.40
48648;DHT22;34437;-33.956;151.076;2023-04-24T04:50:35;25.10;68.40
48648;DHT22;34437;-33.956;151.076;2023-04-24T04:52:58;25.20;68.40
48648;DHT22;34437;-33.956;151.076;2023-04-24T04:55:20;25.30;68.10
48648;DHT22;34437;-33.956;151.076;2023-04-24T04:57:43;25.30;67.90
48648;DHT22;34437;-33.956;151.076;2023-04-24T05:00:06;25.30;67.90
48648;DHT22;34437;-33.956;151.076;2023-04-24T05:02:29;25.40;67.60
48648;DHT22;34437;-33.956;151.076;2023-04-24T05:04:51;25.40;67.60
48648;DHT22;34437;-33.956;151.076;2023-04-24T05:07:14;25.50;67.40
48648;DHT22;34437;-33.956;151.076;2023-04-24T05:09:36;25.70;66.70
48648;DHT22;34437;-33.956;151.076;2023-04-24T05:11:58;25.70;66.10
48648;DHT22;34437;-33.956;151.076;2023-04-24T05:14:22;25.80;65.70
48648;DHT22;34437;-33.956;151.076;2023-04-24T05:16:44;25.80;65.60
48648;DHT22;34437;-33.956;151.076;2023-04-24T05:19:07;26.00;65.50
48648;DHT22;34437;-33.956;151.076;2023-04-24T05:21:29;26.10;65.20
48648;DHT22;34437;-33.956;151.076;2023-04-24T05:23:52;26.20;65.20
48648;DHT22;34437;-33.956;151.076;2023-04-24T05:26:14;26.20;65.00
48648;DHT22;34437;-33.956;151.076;2023-04-24T05:28:37;26.20;65.00
48648;DHT22;34437;-33.956;151.076;2023-04-24T05:30:59;26.20;65.20
48648;DHT22;34437;-33.956;151.076;2023-04-24T05:33:22;26.20;65.50
48648;DHT22;34437;-33.956;151.076;2023-04-24T05:35:45;26.10;65.60
48648;DHT22;34437;-33.956;151.076;2023-04-24T05:38:08;26.10;65.70
48648;DHT22;34437;-33.956;151.076;2023-04-24T05:40:30;26.00;65.90
48648;DHT22;34437;-33.956;151.076;2023-04-24T05:42:53;26.00;66.00
48648;DHT22;34437;-33.956;151.076;2023-04-24T05:45:15;25.90;66.00
48648;DHT22;34437;-33.956;151.076;2023-04-24T05:47:38;26.00;66.20
48648;DHT22;34437;-33.956;151.076;2023-04-24T05:50:00;25.90;66.20
48648;DHT22;34437;-33.956;151.076;2023-04-24T05:52:23;25.90;66.30
48648;DHT22;34437;-33.956;151.076;2023-04-24T05:54:45;25.80;66.30
48648;DHT22;34437;-33.956;151.076;2023-04-24T05:57:07;25.80;66.40
48648;DHT22;34437;-33.956;151.076;2023-04-24T05:59:30;25.80;66.50
48648;DHT22;34437;-33.956;151.076;2023-04-24T06:01:52;25.80;66.40
48648;DHT22;34437;-33.956;151.076;2023-04-24T06:04:15;25.70;66.30
48648;DHT22;34437;-33.956;151.076;2023-04-24T06:06:37;25.70;66.30
48648;DHT22;34437;-33.956;151.076;2023-04-24T06:09:00;25.70;66.30
48648;DHT22;34437;-33.956;151.076;2023-04-24T06:11:22;25.70;66.40
48648;DHT22;34437;-33.956;151.076;2023-04-24T06:13:44;25.70;66.40
48648;DHT22;34437;-33.956;151.076;2023-04-24T06:16:07;25.70;66.50
48648;DHT22;34437;-33.956;151.076;2023-04-24T06:18:29;25.60;66.50
48648;DHT22;34437;-33.956;151.076;2023-04-24T06:20:52;25.60;66.60
48648;DHT22;34437;-33.956;151.076;2023-04-24T06:23:14;25.60;67.20
48648;DHT22;34437;-33.956;151.076;2023-04-24T06:25:37;25.50;66.60
48648;DHT22;34437;-33.956;151.076;2023-04-24T06:28:00;25.50;66.60
48648;DHT22;34437;-33.956;151.076;2023-04-24T06:30:23;25.50;66.70
48648;DHT22;34437;-33.956;151.076;2023-04-24T06:32:46;25.50;66.80
48648;DHT22;34437;-33.956;151.076;2023-04-24T06:35:08;25.40;66.70
48648;DHT22;34437;-33.956;151.076;2023-04-24T06:37:31;25.40;66.50
48648;DHT22;34437;-33.956;151.076;2023-04-24T06:39:53;25.40;66.60
48648;DHT22;34437;-33.956;151.076;2023-04-24T06:42:16;25.40;66.70
48648;DHT22;34437;-33.956;151.076;2023-04-24T06:44:38;25.40;67.40
48648;DHT22;34437;-33.956;151.076;2023-04-24T06:47:04;25.40;66.70
48648;DHT22;34437;-33.956;151.076;2023-04-24T06:49:27;25.40;66.90
48648;DHT22;34437;-33.956;151.076;2023-04-24T06:51:49;25.40;67.00
48648;DHT22;34437;-33.956;151.076;2023-04-24T06:54:11;25.40;67.10
48648;DHT22;34437;-33.956;151.076;2023-04-24T06:56:34;25.40;67.20
48648;DHT22;34437;-33.956;151.076;2023-04-24T06:58:57;25.40;67.20
48648;DHT22;34437;-33.956;151.076;2023-04-24T07:01:19;25.40;67.30
48648;DHT22;34437;-33.956;151.076;2023-04-24T07:03:42;25.40;67.30
48648;DHT22;34437;-33.956;151.076;2023-04-24T07:06:05;25.40;67.30
48648;DHT22;34437;-33.956;151.076;2023-04-24T07:08:27;25.40;67.30
48648;DHT22;34437;-33.956;151.076;2023-04-24T07:10:52;25.40;67.40
48648;DHT22;34437;-33.956;151.076;2023-04-24T07:13:14;25.40;67.40
48648;DHT22;34437;-33.956;151.076;2023-04-24T07:15:36;25.30;67.90
48648;DHT22;34437;-33.956;151.076;2023-04-24T07:17:59;25.30;67.40
48648;DHT22;34437;-33.956;151.076;2023-04-24T07:20:22;25.30;67.40
48648;DHT22;34437;-33.956;151.076;2023-04-24T07:22:44;25.30;67.50
48648;DHT22;34437;-33.956;151.076;2023-04-24T07:25:07;25.30;67.60
48648;DHT22;34437;-33.956;151.076;2023-04-24T07:27:30;25.30;67.60
48648;DHT22;34437;-33.956;151.076;2023-04-24T07:29:53;25.30;67.70
48648;DHT22;34437;-33.956;151.076;2023-04-24T07:32:15;25.30;67.70
48648;DHT22;34437;-33.956;151.076;2023-04-24T07:34:38;25.30;67.90
48648;DHT22;34437;-33.956;151.076;2023-04-24T07:37:00;25.20;67.40
48648;DHT22;34437;-33.956;151.076;2023-04-24T07:39:23;25.20;67.20
48648;DHT22;34437;-33.956;151.076;2023-04-24T07:41:46;25.20;67.20
48648;DHT22;34437;-33.956;151.076;2023-04-24T07:44:08;25.10;67.50
48648;DHT22;34437;-33.956;151.076;2023-04-24T07:46:31;25.20;67.70
48648;DHT22;34437;-33.956;151.076;2023-04-24T07:48:54;25.20;67.80
48648;DHT22;34437;-33.956;151.076;2023-04-24T07:51:16;25.20;67.90
48648;DHT22;34437;-33.956;151.076;2023-04-24T07:53:42;25.20;68.10
48648;DHT22;34437;-33.956;151.076;2023-04-24T07:56:05;25.10;68.10
48648;DHT22;34437;-33.956;151.076;2023-04-24T07:58:27;25.10;68.20
48648;DHT22;34437;-33.956;151.076;2023-04-24T08:00:49;25.10;68.00
48648;DHT22;34437;-33.956;151.076;2023-04-24T08:03:12;25.10;68.00
48648;DHT22;34437;-33.956;151.076;2023-04-24T08:05:34;25.10;68.00
48648;DHT22;34437;-33.956;151.076;2023-04-24T08:07:57;25.10;68.00
48648;DHT22;34437;-33.956;151.076;2023-04-24T08:10:20;25.10;68.10
48648;DHT22;34437;-33.956;151.076;2023-04-24T08:12:42;25.10;68.00
48648;DHT22;34437;-33.956;151.076;2023-04-24T08:15:06;25.10;68.20
48648;DHT22;34437;-33.956;151.076;2023-04-24T08:17:28;25.10;68.20
48648;DHT22;34437;-33.956;151.076;2023-04-24T08:19:50;25.10;68.30
48648;DHT22;34437;-33.956;151.076;2023-04-24T08:22:15;25.00;68.20
48648;DHT22;34437;-33.956;151.076;2023-04-24T08:24:38;25.00;68.40
48648;DHT22;34437;-33.956;151.076;2023-04-24T08:27:00;25.00;68.40
48648;DHT22;34437;-33.956;151.076;2023-04-24T08:29:23;25.00;68.50
48648;DHT22;34437;-33.956;151.076;2023-04-24T08:31:45;24.90;68.70
48648;DHT22;34437;-33.956;151.076;2023-04-24T08:34:08;25.00;68.80
48648;DHT22;34437;-33.956;151.076;2023-04-24T08:36:32;24.90;68.90
48648;DHT22;34437;-33.956;151.076;2023-04-24T08:38:55;24.90;68.90
48648;DHT22;34437;-33.956;151.076;2023-04-24T08:41:18;24.90;69.00
48648;DHT22;34437;-33.956;151.076;2023-04-24T08:43:40;24.90;69.10
48648;DHT22;34437;-33.956;151.076;2023-04-24T08:46:04;24.90;69.20
48648;DHT22;34437;-33.956;151.076;2023-04-24T08:48:26;24.80;67.60
48648;DHT22;34437;-33.956;151.076;2023-04-24T08:50:52;24.80;68.20
48648;DHT22;34437;-33.956;151.076;2023-04-24T08:53:15;24.80;68.10
48648;DHT22;34437;-33.956;151.076;2023-04-24T08:55:41;24.80;68.10
48648;DHT22;34437;-33.956;151.076;2023-04-24T08:58:05;24.80;68.00
48648;DHT22;34437;-33.956;151.076;2023-04-24T09:00:29;24.70;67.90
48648;DHT22;34437;-33.956;151.076;2023-04-24T09:02:53;24.70;67.90
48648;DHT22;34437;-33.956;151.076;2023-04-24T09:05:17;24.70;67.90
48648;DHT22;34437;-33.956;151.076;2023-04-24T09:07:42;24.60;68.00
48648;DHT22;34437;-33.956;151.076;2023-04-24T09:10:07;24.60;68.10
48648;DHT22;34437;-33.956;151.076;2023-04-24T09:12:30;24.60;68.30
48648;DHT22;34437;-33.956;151.076;2023-04-24T09:14:52;24.60;68.50
48648;DHT22;34437;-33.956;151.076;2023-04-24T09:17:16;24.60;68.50
48648;DHT22;34437;-33.956;151.076;2023-04-24T09:19:39;24.60;69.30
48648;DHT22;34437;-33.956;151.076;2023-04-24T09:22:05;24.60;68.90
48648;DHT22;34437;-33.956;151.076;2023-04-24T09:24:28;24.60;69.00
48648;DHT22;34437;-33.956;151.076;2023-04-24T09:27:00;24.60;69.00
48648;DHT22;34437;-33.956;151.076;2023-04-24T09:29:25;24.60;69.10
48648;DHT22;34437;-33.956;151.076;2023-04-24T09:31:48;24.60;69.10
48648;DHT22;34437;-33.956;151.076;2023-04-24T09:34:10;24.60;69.20
48648;DHT22;34437;-33.956;151.076;2023-04-24T09:36:43;24.60;69.20
48648;DHT22;34437;-33.956;151.076;2023-04-24T09:39:10;24.50;68.10
48648;DHT22;34437;-33.956;151.076;2023-04-24T09:41:33;24.50;68.60
48648;DHT22;34437;-33.956;151.076;2023-04-24T09:43:56;24.50;68.70
48648;DHT22;34437;-33.956;151.076;2023-04-24T09:46:19;24.50;68.90
48648;DHT22;34437;-33.956;151.076;2023-04-24T09:48:43;24.50;69.00
48648;DHT22;34437;-33.956;151.076;2023-04-24T09:51:06;24.40;69.10
48648;DHT22;34437;-33.956;151.076;2023-04-24T09:53:32;24.40;69.20
48648;DHT22;34437;-33.956;151.076;2023-04-24T09:55:54;24.40;69.30
48648;DHT22;34437;-33.956;151.076;2023-04-24T09:58:17;24.40;69.40
48648;DHT22;34437;-33.956;151.076;2023-04-24T10:00:39;24.40;69.60
48648;DHT22;34437;-33.956;151.076;2023-04-24T10:03:04;24.40;69.80
48648;DHT22;34437;-33.956;151.076;2023-04-24T10:05:31;24.40;70.00
48648;DHT22;34437;-33.956;151.076;2023-04-24T10:07:57;24.40;70.00
48648;DHT22;34437;-33.956;151.076;2023-04-24T10:10:22;24.40;70.30
48648;DHT22;34437;-33.956;151.076;2023-04-24T10:12:44;24.40;70.30
48648;DHT22;34437;-33.956;151.076;2023-04-24T10:15:09;24.40;70.70
48648;DHT22;34437;-33.956;151.076;2023-04-24T10:17:34;24.40;70.70
48648;DHT22;34437;-33.956;151.076;2023-04-24T10:19:57;24.40;69.50
48648;DHT22;34437;-33.956;151.076;2023-04-24T10:22:20;24.40;68.70
48648;DHT22;34437;-33.956;151.076;2023-04-24T10:24:44;24.40;69.40
48648;DHT22;34437;-33.956;151.076;2023-04-24T10:27:08;24.30;69.70
48648;DHT22;34437;-33.956;151.076;2023-04-24T10:29:31;24.30;69.80
48648;DHT22;34437;-33.956;151.076;2023-04-24T10:31:54;24.30;70.10
48648;DHT22;34437;-33.956;151.076;2023-04-24T10:34:18;24.30;70.30
48648;DHT22;34437;-33.956;151.076;2023-04-24T10:36:47;24.20;70.50
48648;DHT22;34437;-33.956;151.076;2023-04-24T10:39:13;24.20;70.70
48648;DHT22;34437;-33.956;151.076;2023-04-24T10:41:39;24.20;70.80
48648;DHT22;34437;-33.956;151.076;2023-04-24T10:44:12;24.20;70.90
48648;DHT22;34437;-33.956;151.076;2023-04-24T10:46:35;24.20;71.00
48648;DHT22;34437;-33.956;151.076;2023-04-24T10:48:58;24.20;71.00
48648;DHT22;34437;-33.956;151.076;2023-04-24T10:51:23;24.20;71.00
48648;DHT22;34437;-33.956;151.076;2023-04-24T10:53:45;24.20;71.10
48648;DHT22;34437;-33.956;151.076;2023-04-24T10:56:09;24.20;71.10
48648;DHT22;34437;-33.956;151.076;2023-04-24T10:58:44;24.20;71.10
48648;DHT22;34437;-33.956;151.076;2023-04-24T11:01:08;24.20;71.10
48648;DHT22;34437;-33.956;151.076;2023-04-24T11:03:33;24.10;71.10
48648;DHT22;34437;-33.956;151.076;2023-04-24T11:06:09;24.20;71.20
48648;DHT22;34437;-33.956;151.076;2023-04-24T11:08:48;24.20;71.20
48648;DHT22;34437;-33.956;151.076;2023-04-24T11:11:12;24.20;71.20
48648;DHT22;34437;-33.956;151.076;2023-04-24T11:16:24;24.10;71.20
48648;DHT22;34437;-33.956;151.076;2023-04-24T11:18:52;24.20;71.30
48648;DHT22;34437;-33.956;151.076;2023-04-24T11:21:19;24.20;71.30
48648;DHT22;34437;-33.956;151.076;2023-04-24T11:23:42;24.10;71.20
48648;DHT22;34437;-33.956;151.076;2023-04-24T11:26:36;24.10;71.30
48648;DHT22;34437;-33.956;151.076;2023-04-24T11:29:08;24.20;71.30
48648;DHT22;34437;-33.956;151.076;2023-04-24T11:31:39;24.20;71.30
48648;DHT22;34437;-33.956;151.076;2023-04-24T11:34:10;24.10;71.30
48648;DHT22;34437;-33.956;151.076;2023-04-24T11:36:34;24.20;71.40
48648;DHT22;34437;-33.956;151.076;2023-04-24T11:38:58;24.10;71.30
48648;DHT22;34437;-33.956;151.076;2023-04-24T11:41:20;24.20;71.40
48648;DHT22;34437;-33.956;151.076;2023-04-24T11:43:44;24.20;72.00
48648;DHT22;34437;-33.956;151.076;2023-04-24T11:46:07;24.20;71.40
48648;DHT22;34437;-33.956;151.076;2023-04-24T11:48:30;24.10;71.30
48648;DHT22;34437;-33.956;151.076;2023-04-24T11:50:57;24.10;71.30
48648;DHT22;34437;-33.956;151.076;2023-04-24T11:53:23;24.10;71.30
48648;DHT22;34437;-33.956;151.076;2023-04-24T11:55:46;24.20;71.40
48648;DHT22;34437;-33.956;151.076;2023-04-24T11:58:08;24.20;71.30
48648;DHT22;34437;-33.956;151.076;2023-04-24T12:00:32;24.10;71.30
48648;DHT22;34437;-33.956;151.076;2023-04-24T12:03:24;24.20;71.40
48648;DHT22;34437;-33.956;151.076;2023-04-24T12:05:46;24.20;71.20
48648;DHT22;34437;-33.956;151.076;2023-04-24T12:08:09;24.10;71.10
48648;DHT22;34437;-33.956;151.076;2023-04-24T12:10:33;24.10;71.10
48648;DHT22;34437;-33.956;151.076;2023-04-24T12:12:57;24.10;71.10
48648;DHT22;34437;-33.956;151.076;2023-04-24T12:15:20;24.10;71.20
48648;DHT22;34437;-33.956;151.076;2023-04-24T12:17:43;24.10;71.10
48648;DHT22;34437;-33.956;151.076;2023-04-24T12:20:08;24.20;71.30
48648;DHT22;34437;-33.956;151.076;2023-04-24T12:25:10;24.10;70.20
48648;DHT22;34437;-33.956;151.076;2023-04-24T12:27:33;24.00;70.30
48648;DHT22;34437;-33.956;151.076;2023-04-24T12:29:57;24.00;70.40
48648;DHT22;34437;-33.956;151.076;2023-04-24T12:32:19;24.00;70.60
48648;DHT22;34437;-33.956;151.076;2023-04-24T12:34:44;24.00;70.70
48648;DHT22;34437;-33.956;151.076;2023-04-24T12:37:12;24.00;70.80
48648;DHT22;34437;-33.956;151.076;2023-04-24T12:39:35;24.00;70.80
48648;DHT22;34437;-33.956;151.076;2023-04-24T12:41:57;24.00;70.90
48648;DHT22;34437;-33.956;151.076;2023-04-24T12:44:32;24.00;70.40
48648;DHT22;34437;-33.956;151.076;2023-04-24T12:46:56;24.00;71.00
48648;DHT22;34437;-33.956;151.076;2023-04-24T12:49:18;24.00;71.10
48648;DHT22;34437;-33.956;151.076;2023-04-24T12:51:41;23.90;71.10
48648;DHT22;34437;-33.956;151.076;2023-04-24T12:54:03;23.90;71.10
48648;DHT22;34437;-33.956;151.076;2023-04-24T12:56:26;23.90;71.20
48648;DHT22;34437;-33.956;151.076;2023-04-24T12:58:48;23.90;71.10
48648;DHT22;34437;-33.956;151.076;2023-04-24T13:01:13;23.90;71.20
48648;DHT22;34437;-33.956;151.076;2023-04-24T13:03:35;23.90;71.20
48648;DHT22;34437;-33.956;151.076;2023-04-24T13:05:58;23.90;71.20
48648;DHT22;34437;-33.956;151.076;2023-04-24T13:08:21;23.80;71.10
48648;DHT22;34437;-33.956;151.076;2023-04-24T13:10:43;23.80;71.20
48648;DHT22;34437;-33.956;151.076;2023-04-24T13:13:06;23.80;71.20
48648;DHT22;34437;-33.956;151.076;2023-04-24T13:15:28;23.80;71.10
48648;DHT22;34437;-33.956;151.076;2023-04-24T13:17:51;23.80;71.20
48648;DHT22;34437;-33.956;151.076;2023-04-24T13:20:13;23.80;71.40
48648;DHT22;34437;-33.956;151.076;2023-04-24T13:22:36;23.80;71.40
48648;DHT22;34437;-33.956;151.076;2023-04-24T13:24:59;23.80;71.40
48648;DHT22;34437;-33.956;151.076;2023-04-24T13:27:23;23.80;71.40
48648;DHT22;34437;-33.956;151.076;2023-04-24T13:29:45;23.80;71.50
48648;DHT22;34437;-33.956;151.076;2023-04-24T13:32:09;23.80;71.50
48648;DHT22;34437;-33.956;151.076;2023-04-24T13:34:32;23.70;71.40
48648;DHT22;34437;-33.956;151.076;2023-04-24T13:36:57;23.70;71.50
48648;DHT22;34437;-33.956;151.076;2023-04-24T13:39:19;23.70;71.80
48648;DHT22;34437;-33.956;151.076;2023-04-24T13:41:42;23.70;71.80
48648;DHT22;34437;-33.956;151.076;2023-04-24T13:44:05;23.70;71.80
48648;DHT22;34437;-33.956;151.076;2023-04-24T13:46:28;23.70;71.70
48648;DHT22;34437;-33.956;151.076;2023-04-24T13:48:50;23.70;71.60
48648;DHT22;34437;-33.956;151.076;2023-04-24T13:51:14;23.70;71.60
48648;DHT22;34437;-33.956;151.076;2023-04-24T13:53:36;23.70;71.70
48648;DHT22;34437;-33.956;151.076;2023-04-24T13:56:00;23.70;71.80
48648;DHT22;34437;-33.956;151.076;2023-04-24T13:58:22;23.70;71.70
48648;DHT22;34437;-33.956;151.076;2023-04-24T14:00:45;23.70;71.70
48648;DHT22;34437;-33.956;151.076;2023-04-24T14:03:07;23.70;71.60
48648;DHT22;34437;-33.956;151.076;2023-04-24T14:05:30;23.70;71.50
48648;DHT22;34437;-33.956;151.076;2023-04-24T14:07:52;23.60;71.50
48648;DHT22;34437;-33.956;151.076;2023-04-24T14:10:14;23.60;71.40
48648;DHT22;34437;-33.956;151.076;2023-04-24T14:12:37;23.60;71.40
48648;DHT22;34437;-33.956;151.076;2023-04-24T14:14:59;23.60;71.40
48648;DHT22;34437;-33.956;151.076;2023-04-24T14:17:23;23.60;71.40
48648;DHT22;34437;-33.956;151.076;2023-04-24T14:19:45;23.60;71.40
48648;DHT22;34437;-33.956;151.076;2023-04-24T14:22:07;23.60;71.40
48648;DHT22;34437;-33.956;151.076;2023-04-24T14:24:30;23.50;71.50
48648;DHT22;34437;-33.956;151.076;2023-04-24T14:26:52;23.50;71.40
48648;DHT22;34437;-33.956;151.076;2023-04-24T14:29:15;23.50;71.50